Time;durP1;ratioP1;P1;durP2;ratioP2;P2;SDS_P1;SDS_P2;PMS_P1;PMS_P2;Temp;Humidity;BMP_temperature;BMP_pressure;BME280_temperature;BME280_humidity;BME280_pressure;Samples;Min_cycle;Max_cycle;Signal;HPM_P1;HPM_P2
2023/10/20 00:02:27;;;;;;;22.40;14.75;;;;;;;;;;5034881;28;20049;-66
2023/10/20 00:04:54;;;;;;;24.58;16.02;;;;;;;;;;5042935;28;20104;-66
2023/10/20 00:07:21;;;;;;;22.73;15.98;;;;;;;;;;5036848;28;20122;-66
2023/10/20 00:09:49;;;;;;;22.45;15.40;;;;;;;;;;5043449;28;20050;-67
2023/10/20 00:12:16;;;;;;;23.38;16.08;;;;;;;;;;5029250;28;20587;-67
2023/10/20 00:14:42;;;;;;;25.70;16.17;;;;;;;;;;5059613;28;20088;-66
2023/10/20 00:17:09;;;;;;;26.88;15.43;;;;;;;;;;5054416;28;20135;-67
2023/10/20 00:19:35;;;;;;;23.98;16.08;;;;;;;;;;5046253;28;20080;-67
2023/10/20 00:22:01;;;;;;;25.23;16.58;;;;;;;;;;5045626;28;20052;-66
2023/10/20 00:24:29;;;;;;;24.08;16.40;;;;;;;;;;5043145;28;20092;-67
2023/10/20 00:26:56;;;;;;;29.17;17.45;;;;;;;;;;5037689;28;20049;-66
2023/10/20 00:29:23;;;;;;;26.10;16.83;;;;;;;;;;5030465;28;20060;-66
2023/10/20 00:31:50;;;;;;;28.08;16.88;;;;;;;;;;5029694;28;20499;-67
2023/10/20 00:34:16;;;;;;;27.17;17.95;;;;;;;;;;5043869;28;20128;-67
2023/10/20 00:36:43;;;;;;;30.00;19.15;;;;;;;;;;5039349;28;20068;-68
2023/10/20 00:39:09;;;;;;;31.15;18.52;;;;;;;;;;5036497;28;20653;-66
2023/10/20 00:41:36;;;;;;;28.98;18.27;;;;;;;;;;5031488;28;20508;-67
2023/10/20 00:44:03;;;;;;;32.55;20.52;;;;;;;;;;5038483;28;20057;-66
2023/10/20 00:46:30;;;;;;;28.80;19.95;;;;;;;;;;5033329;28;20045;-64
2023/10/20 00:48:57;;;;;;;34.80;19.73;;;;;;;;;;5041410;28;20795;-67
2023/10/20 00:51:24;;;;;;;31.85;20.33;;;;;;;;;;5033879;28;20062;-67
2023/10/20 00:53:51;;;;;;;32.60;19.75;;;;;;;;;;5034196;28;20291;-67
2023/10/20 00:56:18;;;;;;;33.00;20.55;;;;;;;;;;5040195;28;20038;-65
2023/10/20 00:58:44;;;;;;;40.08;21.80;;;;;;;;;;5042515;28;20095;-67
2023/10/20 01:01:11;;;;;;;32.80;19.75;;;;;;;;;;5036362;28;20127;-67
2023/10/20 01:03:38;;;;;;;31.67;19.98;;;;;;;;;;5046291;28;20053;-66
2023/10/20 01:06:05;;;;;;;36.53;20.75;;;;;;;;;;5035494;28;20053;-66
2023/10/20 01:08:31;;;;;;;37.58;21.70;;;;;;;;;;5045501;28;20124;-65
2023/10/20 01:10:58;;;;;;;38.75;21.65;;;;;;;;;;5038007;28;20045;-66
2023/10/20 01:13:25;;;;;;;33.17;21.15;;;;;;;;;;5045848;28;20049;-66
2023/10/20 01:15:51;;;;;;;36.15;20.63;;;;;;;;;;5032113;28;20508;-66
2023/10/20 01:18:18;;;;;;;39.22;22.13;;;;;;;;;;5043023;28;20053;-66
2023/10/20 01:20:44;;;;;;;42.42;22.70;;;;;;;;;;5033485;28;20508;-66
2023/10/20 01:23:11;;;;;;;39.38;22.35;;;;;;;;;;5045706;28;20045;-66
2023/10/20 01:25:37;;;;;;;39.60;23.05;;;;;;;;;;5027811;28;20087;-66
2023/10/20 01:28:04;;;;;;;41.28;21.65;;;;;;;;;;5044564;28;20804;-66
2023/10/20 01:30:30;;;;;;;36.55;21.17;;;;;;;;;;5046177;28;20084;-66
2023/10/20 01:32:57;;;;;;;42.88;22.95;;;;;;;;;;5043873;28;20454;-66
2023/10/20 01:35:24;;;;;;;39.05;21.23;;;;;;;;;;5035451;28;20045;-66
2023/10/20 01:37:50;;;;;;;36.13;21.75;;;;;;;;;;5040736;28;20072;-65
2023/10/20 01:40:19;;;;;;;39.30;22.40;;;;;;;;;;5047096;28;20364;-65
2023/10/20 01:42:45;;;;;;;39.47;22.85;;;;;;;;;;5048445;28;20098;-65
2023/10/20 01:45:12;;;;;;;36.63;21.67;;;;;;;;;;5042710;28;20087;-65
2023/10/20 01:47:38;;;;;;;34.08;20.33;;;;;;;;;;5032488;28;20077;-65
2023/10/20 01:50:06;;;;;;;34.72;20.73;;;;;;;;;;5044007;28;20037;-65
2023/10/20 01:52:33;;;;;;;36.47;21.67;;;;;;;;;;5040671;28;20053;-66
2023/10/20 01:54:59;;;;;;;39.70;20.92;;;;;;;;;;5047640;28;20068;-66
2023/10/20 01:57:26;;;;;;;38.20;22.40;;;;;;;;;;5048855;28;20057;-66
2023/10/20 01:59:52;;;;;;;36.90;21.60;;;;;;;;;;5045356;28;20042;-66
2023/10/20 02:02:18;;;;;;;37.55;21.38;;;;;;;;;;5039944;28;20594;-66
2023/10/20 02:04:45;;;;;;;36.78;20.50;;;;;;;;;;5044275;28;20084;-65
2023/10/20 02:07:12;;;;;;;41.20;20.13;;;;;;;;;;5040656;28;20080;-66
2023/10/20 02:09:38;;;;;;;34.75;20.27;;;;;;;;;;5046723;28;20049;-66
2023/10/20 02:12:05;;;;;;;35.63;20.88;;;;;;;;;;5039510;28;20550;-66
2023/10/20 02:14:32;;;;;;;37.47;22.15;;;;;;;;;;5039162;28;20087;-66
2023/10/20 02:16:59;;;;;;;38.35;22.63;;;;;;;;;;5048859;28;20048;-66
2023/10/20 02:19:26;;;;;;;38.92;21.65;;;;;;;;;;5045930;28;20049;-66
2023/10/20 02:21:52;;;;;;;35.28;21.85;;;;;;;;;;5039964;28;20095;-66
2023/10/20 02:24:19;;;;;;;36.13;21.00;;;;;;;;;;5047494;28;20124;-66
2023/10/20 02:26:45;;;;;;;35.70;20.75;;;;;;;;;;5032982;28;20414;-66
2023/10/20 02:29:12;;;;;;;38.00;19.60;;;;;;;;;;5037884;28;20060;-66
2023/10/20 02:31:38;;;;;;;31.90;19.40;;;;;;;;;;5040721;28;20711;-66
2023/10/20 02:34:05;;;;;;;36.08;22.55;;;;;;;;;;5044324;28;20133;-66
2023/10/20 02:36:34;;;;;;;34.75;21.48;;;;;;;;;;5035242;28;20088;-66
2023/10/20 02:39:01;;;;;;;38.20;22.48;;;;;;;;;;5046158;28;20081;-67
2023/10/20 02:41:28;;;;;;;38.97;21.77;;;;;;;;;;5038699;28;20115;-66
2023/10/20 02:43:55;;;;;;;38.97;22.48;;;;;;;;;;5047144;28;20052;-66
2023/10/20 02:46:21;;;;;;;37.63;22.52;;;;;;;;;;5036533;28;20072;-66
2023/10/20 02:48:48;;;;;;;40.00;22.83;;;;;;;;;;5047324;28;20464;-66
2023/10/20 02:51:15;;;;;;;41.28;21.58;;;;;;;;;;5046532;28;20048;-67
2023/10/20 02:53:41;;;;;;;41.97;23.25;;;;;;;;;;5047541;28;20053;-66
2023/10/20 02:56:12;;;;;;;36.92;21.90;;;;;;;;;;5035539;28;20053;-67
2023/10/20 02:58:39;;;;;;;40.78;22.70;;;;;;;;;;5046713;28;20687;-66
2023/10/20 03:01:09;;;;;;;50.35;23.33;;;;;;;;;;5028010;28;20045;-66
2023/10/20 03:03:36;;;;;;;36.28;22.33;;;;;;;;;;5043569;28;20051;-66
2023/10/20 03:06:04;;;;;;;36.83;21.52;;;;;;;;;;5042631;28;20049;-66
2023/10/20 03:08:30;;;;;;;32.28;19.35;;;;;;;;;;5030435;28;20052;-66
2023/10/20 03:10:57;;;;;;;30.35;18.23;;;;;;;;;;5030610;28;20049;-67
2023/10/20 03:13:24;;;;;;;34.25;20.10;;;;;;;;;;5038845;28;20183;-64
2023/10/20 03:15:50;;;;;;;28.98;18.42;;;;;;;;;;5036218;28;20045;-64
2023/10/20 03:18:17;;;;;;;34.50;19.10;;;;;;;;;;5038960;28;20124;-67
2023/10/20 03:20:44;;;;;;;30.65;17.63;;;;;;;;;;5037936;28;20099;-66
2023/10/20 03:23:10;;;;;;;31.10;17.67;;;;;;;;;;5033850;28;20048;-66
2023/10/20 03:25:37;;;;;;;30.92;17.45;;;;;;;;;;5043619;28;20429;-67
2023/10/20 03:28:05;;;;;;;30.15;17.25;;;;;;;;;;5039172;28;20045;-66
2023/10/20 03:30:36;;;;;;;33.08;17.75;;;;;;;;;;5038106;28;20050;-66
2023/10/20 03:33:03;;;;;;;26.33;15.80;;;;;;;;;;5031793;28;20048;-66
2023/10/20 03:35:29;;;;;;;29.73;16.02;;;;;;;;;;5038643;28;20053;-66
2023/10/20 03:37:58;;;;;;;25.08;15.43;;;;;;;;;;5038885;28;20049;-67
2023/10/20 03:40:30;;;;;;;24.55;15.93;;;;;;;;;;5038310;28;20383;-66
2023/10/20 03:42:58;;;;;;;26.15;15.50;;;;;;;;;;5047448;28;20520;-66
2023/10/20 03:45:25;;;;;;;24.27;15.48;;;;;;;;;;5035425;28;20081;-67
2023/10/20 03:47:51;;;;;;;22.92;14.90;;;;;;;;;;5040663;28;20089;-66
2023/10/20 03:50:18;;;;;;;24.20;14.52;;;;;;;;;;5033128;28;20057;-67
2023/10/20 03:52:48;;;;;;;19.55;13.10;;;;;;;;;;5046725;28;20409;-66
2023/10/20 03:55:15;;;;;;;25.20;14.45;;;;;;;;;;5032327;28;20043;-66
2023/10/20 03:57:44;;;;;;;26.63;15.00;;;;;;;;;;5039486;28;20437;-67
2023/10/20 04:00:21;;;;;;;22.45;12.80;;;;;;;;;;5043463;28;20059;-66
2023/10/20 04:02:47;;;;;;;19.98;12.43;;;;;;;;;;5041684;28;20060;-67
2023/10/20 04:05:16;;;;;;;24.90;14.02;;;;;;;;;;5031402;28;20045;-65
2023/10/20 04:07:43;;;;;;;19.40;12.45;;;;;;;;;;5029720;28;20045;-66
2023/10/20 04:10:09;;;;;;;21.70;12.55;;;;;;;;;;5060978;28;20546;-65
2023/10/20 04:12:37;;;;;;;22.10;12.25;;;;;;;;;;5045430;28;20056;-65
2023/10/20 04:15:03;;;;;;;20.23;12.90;;;;;;;;;;5041347;28;20121;-65
2023/10/20 04:17:30;;;;;;;18.90;12.48;;;;;;;;;;5031825;28;20103;-65
2023/10/20 04:19:56;;;;;;;20.30;12.60;;;;;;;;;;5042239;28;20465;-67
2023/10/20 04:22:23;;;;;;;20.20;12.32;;;;;;;;;;5026331;28;20132;-68
2023/10/20 04:24:49;;;;;;;22.13;13.18;;;;;;;;;;5035024;28;20084;-64
2023/10/20 04:27:27;;;;;;;22.13;12.65;;;;;;;;;;5043719;28;20084;-65
2023/10/20 04:57:52;;;;;;;23.95;13.65;;;;;;;;;;5030710;28;20221;-66
2023/10/20 05:05:34;;;;;;;23.65;14.32;;;;;;;;;;5043092;28;20049;-65
2023/10/20 05:10:40;;;;;;;23.48;14.65;;;;;;;;;;5045875;28;20045;-66
2023/10/20 05:13:09;;;;;;;25.50;13.85;;;;;;;;;;5040641;28;20048;-67
2023/10/20 05:15:43;;;;;;;26.77;14.45;;;;;;;;;;5040528;28;20128;-67
2023/10/20 05:18:12;;;;;;;24.83;15.63;;;;;;;;;;5034116;28;20130;-67
2023/10/20 05:20:41;;;;;;;25.92;14.55;;;;;;;;;;5048750;28;20152;-65
2023/10/20 05:23:08;;;;;;;28.83;13.85;;;;;;;;;;5049500;28;20718;-65
2023/10/20 05:25:34;;;;;;;28.30;15.48;;;;;;;;;;5055962;28;20123;-66
2023/10/20 05:28:01;;;;;;;27.33;15.75;;;;;;;;;;5049585;28;20131;-66
2023/10/20 05:30:27;;;;;;;25.33;14.55;;;;;;;;;;5037700;28;20141;-65
2023/10/20 05:32:54;;;;;;;25.55;12.88;;;;;;;;;;5043462;28;20080;-66
2023/10/20 05:35:20;;;;;;;24.88;13.10;;;;;;;;;;5042782;28;20137;-67
2023/10/20 05:37:47;;;;;;;23.27;12.38;;;;;;;;;;5048146;28;20052;-67
2023/10/20 05:40:13;;;;;;;25.67;12.18;;;;;;;;;;5034451;28;20604;-65
2023/10/20 05:42:40;;;;;;;21.75;13.10;;;;;;;;;;5039237;28;20081;-65
2023/10/20 05:45:09;;;;;;;26.98;14.50;;;;;;;;;;5042204;28;20135;-68
2023/10/20 05:47:36;;;;;;;34.22;15.63;;;;;;;;;;5037786;28;20057;-65
2023/10/20 05:50:04;;;;;;;23.40;13.25;;;;;;;;;;5044135;28;20049;-67
2023/10/20 05:52:30;;;;;;;25.00;12.23;;;;;;;;;;5035359;28;20057;-65
2023/10/20 05:54:59;;;;;;;24.35;12.02;;;;;;;;;;5045303;28;20049;-67
2023/10/20 05:57:26;;;;;;;28.25;13.02;;;;;;;;;;5043034;28;20136;-66
2023/10/20 05:59:52;;;;;;;29.67;14.13;;;;;;;;;;5045391;28;20088;-66
2023/10/20 06:02:19;;;;;;;32.53;12.57;;;;;;;;;;5043770;28;20136;-65
2023/10/20 06:04:45;;;;;;;24.90;12.60;;;;;;;;;;5046483;28;20128;-65
2023/10/20 06:07:12;;;;;;;24.67;13.05;;;;;;;;;;5035177;28;20040;-67
2023/10/20 06:09:39;;;;;;;25.42;11.57;;;;;;;;;;5047288;28;20040;-67
2023/10/20 06:12:07;;;;;;;23.13;11.55;;;;;;;;;;5043672;28;20361;-67
2023/10/20 06:14:36;;;;;;;20.55;10.57;;;;;;;;;;5063589;28;20499;-67
2023/10/20 06:17:03;;;;;;;24.77;11.23;;;;;;;;;;5036254;28;20073;-67
2023/10/20 06:19:31;;;;;;;24.25;11.23;;;;;;;;;;5039609;28;20049;-67
2023/10/20 06:21:57;;;;;;;25.33;11.73;;;;;;;;;;5044767;28;20053;-67
2023/10/20 06:24:24;;;;;;;22.38;11.18;;;;;;;;;;5040233;28;20131;-67
2023/10/20 06:26:50;;;;;;;30.05;12.32;;;;;;;;;;5036711;28;20120;-67
2023/10/20 06:34:46;;;;;;;28.90;12.25;;;;;;;;;;5050499;28;20045;-65
2023/10/20 06:37:22;;;;;;;20.10;11.23;;;;;;;;;;5043038;28;20069;-65
2023/10/20 06:39:48;;;;;;;33.47;11.80;;;;;;;;;;5045842;28;20110;-66
2023/10/20 06:42:15;;;;;;;27.08;12.40;;;;;;;;;;5045588;28;20442;-65
2023/10/20 06:44:41;;;;;;;22.30;12.18;;;;;;;;;;5046470;28;20047;-65
2023/10/20 06:47:08;;;;;;;27.92;11.50;;;;;;;;;;5044872;28;20060;-65
2023/10/20 06:49:34;;;;;;;27.27;10.95;;;;;;;;;;5045856;28;20060;-67
2023/10/20 06:52:03;;;;;;;22.17;10.80;;;;;;;;;;5035294;28;20080;-67
2023/10/20 06:54:30;;;;;;;30.13;12.32;;;;;;;;;;5047349;28;20722;-65
2023/10/20 06:56:57;;;;;;;22.70;11.63;;;;;;;;;;5043213;28;20119;-64
2023/10/20 06:59:24;;;;;;;22.60;12.27;;;;;;;;;;5047194;28;20057;-68
2023/10/20 07:01:51;;;;;;;24.63;11.52;;;;;;;;;;5036012;28;20049;-65
2023/10/20 07:04:17;;;;;;;26.95;11.68;;;;;;;;;;5044362;28;20398;-65
2023/10/20 07:06:44;;;;;;;19.65;10.52;;;;;;;;;;5036860;28;20091;-67
2023/10/20 07:09:13;;;;;;;24.77;11.98;;;;;;;;;;5044586;28;20472;-67
2023/10/20 07:11:41;;;;;;;27.02;11.73;;;;;;;;;;5039716;28;20421;-68
2023/10/20 07:14:07;;;;;;;26.92;11.93;;;;;;;;;;5041198;28;20045;-67
2023/10/20 07:16:34;;;;;;;30.52;12.27;;;;;;;;;;5033028;28;20128;-66
2023/10/20 07:19:01;;;;;;;35.67;12.32;;;;;;;;;;5046661;28;20122;-64
2023/10/20 07:21:28;;;;;;;25.02;11.75;;;;;;;;;;5033369;28;20079;-71
2023/10/20 07:23:55;;;;;;;22.92;12.15;;;;;;;;;;5032816;28;20559;-64
2023/10/20 07:26:22;;;;;;;23.48;9.82;;;;;;;;;;5034345;28;20127;-64
2023/10/20 07:28:49;;;;;;;20.55;11.40;;;;;;;;;;5036612;28;20049;-68
2023/10/20 07:31:16;;;;;;;22.13;12.65;;;;;;;;;;5036130;28;20564;-67
2023/10/20 07:33:42;;;;;;;30.58;11.27;;;;;;;;;;5027303;28;20501;-67
2023/10/20 07:36:10;;;;;;;25.50;11.50;;;;;;;;;;5031676;28;20545;-67
2023/10/20 07:38:38;;;;;;;28.23;12.30;;;;;;;;;;5041238;28;20048;-66
2023/10/20 07:41:06;;;;;;;21.10;11.02;;;;;;;;;;5037725;28;20052;-66
2023/10/20 07:43:33;;;;;;;21.45;12.35;;;;;;;;;;5027547;28;20054;-66
2023/10/20 07:46:00;;;;;;;28.20;13.85;;;;;;;;;;5034533;28;20121;-68
2023/10/20 07:48:26;;;;;;;21.77;11.55;;;;;;;;;;5035965;28;20048;-68
2023/10/20 07:50:53;;;;;;;19.75;11.60;;;;;;;;;;5035110;28;20579;-68
2023/10/20 07:53:19;;;;;;;21.88;12.25;;;;;;;;;;5041607;28;20049;-68
2023/10/20 07:55:46;;;;;;;24.85;11.73;;;;;;;;;;5034192;28;20068;-65
2023/10/20 07:58:12;;;;;;;19.90;11.52;;;;;;;;;;5032837;28;20045;-66
2023/10/20 08:00:39;;;;;;;21.65;11.80;;;;;;;;;;5033087;28;20129;-66
2023/10/20 08:03:05;;;;;;;19.88;11.77;;;;;;;;;;5031707;28;20470;-65
2023/10/20 08:05:35;;;;;;;25.05;12.73;;;;;;;;;;5043871;28;20096;-66
2023/10/20 08:08:04;;;;;;;18.40;12.73;;;;;;;;;;5034444;28;20052;-65
2023/10/20 08:10:30;;;;;;;24.65;13.73;;;;;;;;;;5030030;28;20089;-67
2023/10/20 08:12:57;;;;;;;22.58;12.35;;;;;;;;;;5040633;28;20049;-70
2023/10/20 08:15:27;;;;;;;35.65;14.45;;;;;;;;;;5041724;28;20044;-66
2023/10/20 08:17:55;;;;;;;23.37;12.83;;;;;;;;;;5038115;28;20057;-66
2023/10/20 08:20:22;;;;;;;24.52;13.05;;;;;;;;;;5027058;28;20420;-68
2023/10/20 08:22:49;;;;;;;22.85;12.98;;;;;;;;;;5032306;28;20068;-68
2023/10/20 08:25:15;;;;;;;26.63;13.07;;;;;;;;;;5037433;28;20098;-68
2023/10/20 08:27:42;;;;;;;25.60;15.27;;;;;;;;;;5041675;28;20076;-68
2023/10/20 08:30:09;;;;;;;23.98;13.15;;;;;;;;;;5039475;28;20076;-68
2023/10/20 08:32:35;;;;;;;23.02;13.32;;;;;;;;;;5029266;28;20132;-66
2023/10/20 08:35:03;;;;;;;25.08;12.45;;;;;;;;;;5031968;28;20135;-68
2023/10/20 08:37:29;;;;;;;23.58;12.90;;;;;;;;;;5035811;28;20596;-68
2023/10/20 08:39:56;;;;;;;24.85;13.18;;;;;;;;;;5038152;28;20037;-67
2023/10/20 08:42:22;;;;;;;24.33;13.70;;;;;;;;;;5044150;28;20482;-69
2023/10/20 08:44:50;;;;;;;26.40;13.90;;;;;;;;;;5028841;28;20896;-69
2023/10/20 08:47:17;;;;;;;22.98;14.27;;;;;;;;;;5036320;28;20139;-68
2023/10/20 08:49:44;;;;;;;22.33;12.98;;;;;;;;;;5025291;28;20069;-68
2023/10/20 08:52:11;;;;;;;26.65;14.18;;;;;;;;;;5042234;28;20552;-70
2023/10/20 08:54:38;;;;;;;25.67;13.80;;;;;;;;;;5030989;28;20458;-68
2023/10/20 08:57:05;;;;;;;24.70;14.32;;;;;;;;;;5033427;28;20128;-68
2023/10/20 08:59:32;;;;;;;25.85;13.05;;;;;;;;;;5041851;28;20100;-68
2023/10/20 09:01:59;;;;;;;24.08;13.18;;;;;;;;;;5043609;28;20516;-67
2023/10/20 09:04:27;;;;;;;22.00;13.68;;;;;;;;;;5052523;28;20091;-67
2023/10/20 09:06:53;;;;;;;30.50;15.88;;;;;;;;;;5028892;28;20046;-67
2023/10/20 09:09:20;;;;;;;29.08;16.20;;;;;;;;;;5040641;28;20146;-65
2023/10/20 09:11:47;;;;;;;23.08;14.35;;;;;;;;;;5028817;28;20179;-65
2023/10/20 09:14:14;;;;;;;29.27;15.75;;;;;;;;;;5033133;28;20048;-65
2023/10/20 09:16:42;;;;;;;28.38;15.15;;;;;;;;;;5028771;28;20041;-66
2023/10/20 09:19:09;;;;;;;28.67;16.08;;;;;;;;;;5039518;28;20045;-66
2023/10/20 09:21:37;;;;;;;27.05;15.00;;;;;;;;;;5031938;28;20049;-66
2023/10/20 09:24:04;;;;;;;29.58;14.38;;;;;;;;;;5045699;28;20077;-66
2023/10/20 09:26:35;;;;;;;23.52;13.70;;;;;;;;;;5034916;28;20056;-65
2023/10/20 09:29:05;;;;;;;24.70;14.60;;;;;;;;;;5028102;28;20052;-66
2023/10/20 09:31:35;;;;;;;27.73;14.95;;;;;;;;;;5031585;28;20360;-65
2023/10/20 09:34:04;;;;;;;25.98;14.02;;;;;;;;;;5045313;28;20052;-68
2023/10/20 09:36:31;;;;;;;29.27;15.90;;;;;;;;;;5042577;28;20053;-65
2023/10/20 09:38:59;;;;;;;26.65;14.70;;;;;;;;;;5041742;28;20034;-67
2023/10/20 09:41:27;;;;;;;29.55;14.50;;;;;;;;;;5032326;28;20083;-67
2023/10/20 09:44:06;;;;;;;27.70;14.18;;;;;;;;;;5042286;28;20045;-67
2023/10/20 09:46:33;;;;;;;21.88;12.70;;;;;;;;;;5035865;28;20076;-66
2023/10/20 09:49:00;;;;;;;20.48;11.93;;;;;;;;;;5046343;28;20056;-67
2023/10/20 09:51:27;;;;;;;24.45;13.23;;;;;;;;;;5042388;28;20045;-67
2023/10/20 09:53:54;;;;;;;18.23;12.43;;;;;;;;;;5038137;28;20041;-68
2023/10/20 09:56:21;;;;;;;21.55;12.43;;;;;;;;;;5031691;28;20054;-68
2023/10/20 09:58:47;;;;;;;23.65;13.35;;;;;;;;;;5041788;28;20140;-65
2023/10/20 10:01:16;;;;;;;25.40;12.93;;;;;;;;;;5043343;28;20091;-67
2023/10/20 10:03:47;;;;;;;21.90;13.32;;;;;;;;;;5046312;28;20053;-67
2023/10/20 10:06:18;;;;;;;17.08;11.25;;;;;;;;;;5034100;28;20091;-68
2023/10/20 10:08:45;;;;;;;19.60;12.73;;;;;;;;;;5029091;28;20081;-67
2023/10/20 10:11:18;;;;;;;23.25;12.15;;;;;;;;;;5051628;28;20041;-67
2023/10/20 10:13:45;;;;;;;22.27;12.27;;;;;;;;;;5045570;28;20191;-67
2023/10/20 10:16:13;;;;;;;20.20;11.50;;;;;;;;;;5053666;28;20478;-66
2023/10/20 10:18:45;;;;;;;21.23;13.70;;;;;;;;;;5048863;28;20049;-67
2023/10/20 10:21:22;;;;;;;19.20;10.85;;;;;;;;;;5036891;28;20049;-68
2023/10/20 10:24:07;;;;;;;19.60;9.98;;;;;;;;;;5044375;28;20091;-68
2023/10/20 10:26:34;;;;;;;16.05;9.68;;;;;;;;;;5029424;28;20049;-68
2023/10/20 10:29:00;;;;;;;17.30;10.88;;;;;;;;;;5033828;28;20057;-66
2023/10/20 10:31:34;;;;;;;20.80;9.55;;;;;;;;;;5051422;28;20694;-69
2023/10/20 10:34:04;;;;;;;18.30;10.20;;;;;;;;;;5032845;28;20041;-66
2023/10/20 10:36:44;;;;;;;17.15;10.70;;;;;;;;;;5037419;28;20060;-67
2023/10/20 10:39:24;;;;;;;16.15;10.10;;;;;;;;;;5035260;28;20138;-67
2023/10/20 10:41:52;;;;;;;21.17;10.82;;;;;;;;;;5029558;28;20144;-68
2023/10/20 10:44:21;;;;;;;21.88;10.57;;;;;;;;;;5030249;28;20055;-67
2023/10/20 10:46:48;;;;;;;17.42;9.38;;;;;;;;;;5039882;28;20426;-66
2023/10/20 10:49:14;;;;;;;18.73;10.88;;;;;;;;;;5031607;28;20666;-66
2023/10/20 10:51:47;;;;;;;17.52;9.02;;;;;;;;;;5036959;28;20045;-67
2023/10/20 10:54:17;;;;;;;22.83;9.82;;;;;;;;;;5038632;28;20059;-67
2023/10/20 10:56:44;;;;;;;19.65;9.68;;;;;;;;;;5036020;28;20466;-66
2023/10/20 10:59:11;;;;;;;17.20;10.65;;;;;;;;;;5034019;28;20048;-66
2023/10/20 11:01:39;;;;;;;19.27;9.65;;;;;;;;;;5030058;28;20046;-68
2023/10/20 11:04:08;;;;;;;15.55;9.50;;;;;;;;;;5035429;28;20080;-68
2023/10/20 11:06:37;;;;;;;17.88;9.93;;;;;;;;;;5031032;28;20796;-68
2023/10/20 11:09:08;;;;;;;20.13;9.57;;;;;;;;;;5026967;28;20125;-67
2023/10/20 11:11:37;;;;;;;16.98;9.40;;;;;;;;;;5027496;28;20449;-67
2023/10/20 11:14:04;;;;;;;21.40;9.05;;;;;;;;;;5036969;28;20567;-70
2023/10/20 11:16:33;;;;;;;14.80;9.02;;;;;;;;;;5033083;28;20132;-69
2023/10/20 11:19:01;;;;;;;16.23;8.93;;;;;;;;;;5039067;28;20038;-68
2023/10/20 11:21:28;;;;;;;16.30;8.85;;;;;;;;;;5033021;28;20583;-68
2023/10/20 11:23:58;;;;;;;16.85;10.00;;;;;;;;;;5038811;28;20496;-67
2023/10/20 11:26:25;;;;;;;15.25;8.32;;;;;;;;;;5038092;28;20055;-67
2023/10/20 11:28:52;;;;;;;15.10;7.10;;;;;;;;;;5041039;28;20503;-67
2023/10/20 11:31:19;;;;;;;11.38;6.63;;;;;;;;;;5028973;28;20068;-65
2023/10/20 11:33:45;;;;;;;13.38;8.30;;;;;;;;;;5032165;28;20044;-68
2023/10/20 11:36:12;;;;;;;12.98;6.63;;;;;;;;;;5036594;28;20051;-66
2023/10/20 11:38:38;;;;;;;12.70;8.32;;;;;;;;;;5029894;28;20047;-66
2023/10/20 11:41:05;;;;;;;14.20;6.63;;;;;;;;;;5028842;28;20103;-68
2023/10/20 11:43:31;;;;;;;13.55;8.25;;;;;;;;;;5041150;28;20080;-68
2023/10/20 11:45:58;;;;;;;13.10;6.72;;;;;;;;;;5030204;28;20617;-68
2023/10/20 11:48:24;;;;;;;11.35;6.43;;;;;;;;;;5031965;28;20073;-67
2023/10/20 11:50:51;;;;;;;12.50;7.30;;;;;;;;;;5036838;28;20041;-69
2023/10/20 11:53:17;;;;;;;12.52;7.38;;;;;;;;;;5039722;28;20052;-69
2023/10/20 11:55:44;;;;;;;12.10;6.07;;;;;;;;;;5031086;28;20049;-70
2023/10/20 11:58:11;;;;;;;21.95;5.97;;;;;;;;;;5041608;28;20498;-65
2023/10/20 12:00:41;;;;;;;10.65;6.53;;;;;;;;;;5025991;28;20042;-67
2023/10/20 12:03:08;;;;;;;9.43;5.75;;;;;;;;;;5034225;28;20049;-68
2023/10/20 12:05:37;;;;;;;13.00;5.65;;;;;;;;;;5032285;28;20417;-68
2023/10/20 12:08:06;;;;;;;10.18;6.45;;;;;;;;;;5037798;28;20056;-67
2023/10/20 12:10:33;;;;;;;17.25;6.82;;;;;;;;;;5034387;28;20049;-68
2023/10/20 12:13:02;;;;;;;10.98;6.15;;;;;;;;;;5038189;28;20140;-67
2023/10/20 12:15:30;;;;;;;14.52;5.28;;;;;;;;;;5031306;28;20050;-67
2023/10/20 12:17:57;;;;;;;9.38;5.78;;;;;;;;;;5032342;28;20053;-69
2023/10/20 12:20:24;;;;;;;7.10;4.68;;;;;;;;;;5035650;28;20050;-65
2023/10/20 12:22:55;;;;;;;11.23;6.25;;;;;;;;;;5038771;28;20044;-67
2023/10/20 12:25:22;;;;;;;8.82;5.68;;;;;;;;;;5025905;28;20052;-68
2023/10/20 12:27:48;;;;;;;11.85;5.30;;;;;;;;;;5044193;28;20137;-69
2023/10/20 12:30:15;;;;;;;9.05;5.53;;;;;;;;;;5028486;28;20091;-66
2023/10/20 12:32:43;;;;;;;8.40;5.35;;;;;;;;;;5038288;28;20120;-68
2023/10/20 12:35:14;;;;;;;9.20;5.13;;;;;;;;;;5034956;28;20037;-68
2023/10/20 12:37:40;;;;;;;9.88;5.70;;;;;;;;;;5034052;28;20136;-69
2023/10/20 12:40:08;;;;;;;8.18;5.25;;;;;;;;;;5030933;28;20553;-67
2023/10/20 12:42:36;;;;;;;8.40;5.78;;;;;;;;;;5029028;28;20053;-66
2023/10/20 12:45:04;;;;;;;8.27;5.30;;;;;;;;;;5025751;28;20464;-67
2023/10/20 12:47:32;;;;;;;8.52;5.18;;;;;;;;;;5026714;28;20533;-69
2023/10/20 12:49:59;;;;;;;6.95;4.75;;;;;;;;;;5039307;28;20132;-68
2023/10/20 12:52:25;;;;;;;9.07;4.93;;;;;;;;;;5035531;28;20566;-69
2023/10/20 12:54:52;;;;;;;6.68;4.43;;;;;;;;;;5034595;28;20426;-69
2023/10/20 12:57:19;;;;;;;7.65;4.63;;;;;;;;;;5027385;28;20300;-68
2023/10/20 12:59:46;;;;;;;9.35;5.10;;;;;;;;;;5029387;28;20048;-68
2023/10/20 13:02:12;;;;;;;7.60;4.43;;;;;;;;;;5030553;28;20508;-68
2023/10/20 13:04:39;;;;;;;10.60;5.05;;;;;;;;;;5025826;28;20049;-69
2023/10/20 13:07:06;;;;;;;11.70;4.88;;;;;;;;;;5028979;28;20091;-71
2023/10/20 13:09:32;;;;;;;7.72;4.80;;;;;;;;;;5035817;28;20148;-69
2023/10/20 13:11:59;;;;;;;7.85;4.55;;;;;;;;;;5036273;28;20045;-70
2023/10/20 13:14:26;;;;;;;7.97;4.55;;;;;;;;;;5024380;28;20087;-68
2023/10/20 13:16:53;;;;;;;7.72;4.43;;;;;;;;;;5032856;28;20141;-70
2023/10/20 13:19:19;;;;;;;7.88;4.68;;;;;;;;;;5032966;28;20052;-68
2023/10/20 13:21:46;;;;;;;7.70;4.60;;;;;;;;;;5029705;28;20131;-68
2023/10/20 13:24:13;;;;;;;7.82;4.15;;;;;;;;;;5028615;28;20049;-69
2023/10/20 13:26:40;;;;;;;6.07;4.22;;;;;;;;;;5046436;28;20068;-70
2023/10/20 13:29:06;;;;;;;6.70;4.10;;;;;;;;;;5035161;28;20041;-71
2023/10/20 13:31:33;;;;;;;6.97;3.75;;;;;;;;;;5032488;28;20128;-67
2023/10/20 13:34:02;;;;;;;10.95;4.05;;;;;;;;;;5033648;28;20053;-70
2023/10/20 13:36:28;;;;;;;6.43;4.28;;;;;;;;;;5035954;28;20056;-69
2023/10/20 13:38:55;;;;;;;6.57;4.20;;;;;;;;;;5039318;28;20132;-67
2023/10/20 13:41:21;;;;;;;6.63;3.50;;;;;;;;;;5053149;28;20052;-66
2023/10/20 13:43:48;;;;;;;9.50;3.58;;;;;;;;;;5032094;28;20448;-69
2023/10/20 13:46:16;;;;;;;8.30;4.32;;;;;;;;;;5036070;28;20048;-68
2023/10/20 13:48:43;;;;;;;6.95;4.13;;;;;;;;;;5030801;28;20041;-69
2023/10/20 13:51:09;;;;;;;5.53;4.30;;;;;;;;;;5038636;28;20052;-66
2023/10/20 13:53:36;;;;;;;5.65;3.50;;;;;;;;;;5038707;28;20084;-67
2023/10/20 13:56:02;;;;;;;6.47;4.53;;;;;;;;;;5039108;28;20132;-66
2023/10/20 13:58:29;;;;;;;6.38;3.92;;;;;;;;;;5028744;28;20103;-66
2023/10/20 14:00:55;;;;;;;4.95;3.95;;;;;;;;;;5030902;28;20072;-69
2023/10/20 14:03:22;;;;;;;6.70;4.78;;;;;;;;;;5029419;28;20042;-70
2023/10/20 14:05:54;;;;;;;6.00;4.22;;;;;;;;;;5039450;28;20052;-68
2023/10/20 14:08:21;;;;;;;7.03;4.70;;;;;;;;;;5030499;28;20202;-66
2023/10/20 14:10:48;;;;;;;8.25;4.90;;;;;;;;;;5030469;28;20037;-66
2023/10/20 14:13:15;;;;;;;6.70;5.00;;;;;;;;;;5031827;28;20055;-71
2023/10/20 14:15:44;;;;;;;8.32;4.85;;;;;;;;;;5030656;28;20048;-71
2023/10/20 14:18:11;;;;;;;7.90;4.72;;;;;;;;;;5033404;28;20059;-69
2023/10/20 14:20:39;;;;;;;12.27;5.35;;;;;;;;;;5029684;28;20709;-69
2023/10/20 14:23:07;;;;;;;8.73;4.75;;;;;;;;;;5044936;28;20060;-67
2023/10/20 14:25:35;;;;;;;8.90;5.03;;;;;;;;;;5032645;28;20051;-69
2023/10/20 14:28:02;;;;;;;7.80;4.82;;;;;;;;;;5035702;28;20059;-70
2023/10/20 14:30:28;;;;;;;8.23;4.85;;;;;;;;;;5027981;28;20081;-66
2023/10/20 14:32:54;;;;;;;8.50;5.03;;;;;;;;;;5034725;28;20045;-70
2023/10/20 14:35:22;;;;;;;8.13;5.40;;;;;;;;;;5028024;28;20379;-69
2023/10/20 14:37:48;;;;;;;9.60;5.15;;;;;;;;;;5039372;28;20525;-68
2023/10/20 14:40:15;;;;;;;8.63;4.35;;;;;;;;;;5029972;28;20540;-66
2023/10/20 14:42:42;;;;;;;8.07;4.95;;;;;;;;;;5036751;28;20054;-65
2023/10/20 14:45:09;;;;;;;9.63;5.18;;;;;;;;;;5028892;28;20057;-68
2023/10/20 14:47:36;;;;;;;9.00;5.55;;;;;;;;;;5031302;28;20049;-67
2023/10/20 14:50:03;;;;;;;8.70;5.28;;;;;;;;;;5026358;28;20077;-69
2023/10/20 14:52:30;;;;;;;9.90;4.75;;;;;;;;;;5040901;28;20053;-67
2023/10/20 14:54:56;;;;;;;6.97;4.88;;;;;;;;;;5029487;28;20409;-68
2023/10/20 14:57:23;;;;;;;9.25;4.88;;;;;;;;;;5030752;28;20050;-66
2023/10/20 14:59:50;;;;;;;7.10;3.90;;;;;;;;;;5028771;28;20049;-70
2023/10/20 15:02:16;;;;;;;6.55;3.78;;;;;;;;;;5034692;28;20556;-67
2023/10/20 15:04:43;;;;;;;7.72;4.45;;;;;;;;;;5031132;28;20692;-67
2023/10/20 15:07:10;;;;;;;7.70;4.07;;;;;;;;;;5026623;28;20108;-69